createdAt,value
2022-12-14T00:00:45.960Z,29.98
2022-12-14T00:03:26.638Z,32.42
2022-12-14T00:05:59.224Z,29.98
2022-12-14T00:08:36.839Z,40.17
2022-12-14T00:11:17.377Z,36.55
2022-12-14T00:13:55.084Z,32.63
2022-12-14T00:16:28.654Z,31.73
2022-12-14T00:19:02.461Z,33.15
2022-12-14T00:21:34.978Z,35.33
2022-12-14T00:24:07.938Z,33.08
2022-12-14T00:26:40.570Z,31.77
2022-12-14T00:29:13.800Z,32.03
2022-12-14T00:31:48.971Z,35.45
2022-12-14T00:34:22.070Z,36.75
2022-12-14T00:36:55.905Z,36.67
2022-12-14T00:39:28.878Z,29.05
2022-12-14T00:42:01.856Z,28.63
2022-12-14T00:44:34.815Z,30.17
2022-12-14T00:47:07.389Z,25.77
2022-12-14T00:49:40.901Z,30.67
2022-12-14T00:52:13.425Z,29.05
2022-12-14T00:54:46.582Z,29.63
2022-12-14T00:57:19.135Z,32.63
2022-12-14T00:59:52.221Z,33.83
2022-12-14T01:02:24.909Z,33.03
2022-12-14T01:04:58.144Z,30.83
2022-12-14T01:07:30.700Z,28.30
2022-12-14T01:10:04.267Z,25.63
2022-12-14T01:12:36.812Z,29.65
2022-12-14T01:15:10.174Z,22.10
2022-12-14T01:17:43.115Z,22.00
2022-12-14T01:20:16.465Z,20.42
2022-12-14T01:22:53.857Z,24.40
2022-12-14T01:25:26.842Z,22.38
2022-12-14T01:27:59.459Z,22.50
2022-12-14T01:30:32.441Z,21.55
2022-12-14T01:33:04.971Z,20.88
2022-12-14T01:35:37.992Z,19.63
2022-12-14T01:38:10.622Z,20.92
2022-12-14T01:40:43.580Z,21.38
2022-12-14T01:43:16.113Z,23.80
2022-12-14T01:45:49.048Z,22.38
2022-12-14T01:48:22.612Z,22.70
2022-12-14T01:50:56.027Z,26.40
2022-12-14T01:53:28.836Z,22.05
2022-12-14T01:56:02.164Z,26.13
2022-12-14T01:58:35.094Z,25.42
2022-12-14T02:01:11.624Z,24.48
2022-12-14T02:03:47.029Z,25.85
2022-12-14T02:06:23.277Z,25.25
2022-12-14T02:08:56.059Z,27.80
2022-12-14T02:11:46.968Z,25.27
2022-12-14T02:14:19.544Z,26.38
2022-12-14T02:16:54.040Z,26.50
2022-12-14T02:19:26.912Z,25.65
2022-12-14T02:22:18.135Z,27.08
2022-12-14T02:24:53.654Z,25.98
2022-12-14T02:27:45.525Z,26.58
2022-12-14T02:30:26.324Z,28.55
2022-12-14T02:33:17.746Z,28.25
2022-12-14T02:35:50.374Z,22.77
2022-12-14T02:38:39.019Z,27.13
2022-12-14T02:41:17.225Z,24.13
2022-12-14T02:43:59.316Z,26.95
2022-12-14T02:46:31.904Z,27.17
2022-12-14T02:49:10.894Z,26.50
2022-12-14T02:51:49.400Z,24.85
2022-12-14T02:54:42.768Z,27.00
2022-12-14T02:57:21.389Z,25.58
2022-12-14T02:59:59.736Z,27.15
2022-12-14T03:02:35.322Z,28.67
2022-12-14T03:05:08.529Z,28.77
2022-12-14T03:07:54.940Z,21.48
2022-12-14T03:10:27.953Z,24.02
2022-12-14T03:13:19.357Z,26.00
2022-12-14T03:15:56.016Z,25.08
2022-12-14T03:18:31.004Z,26.15
2022-12-14T03:21:06.144Z,23.98
2022-12-14T03:23:39.985Z,21.98
2022-12-14T03:26:16.100Z,26.95
2022-12-14T03:28:54.071Z,26.15
2022-12-14T03:31:32.630Z,26.15
2022-12-14T03:34:07.291Z,24.30
2022-12-14T03:37:08.686Z,24.85
2022-12-14T03:39:42.611Z,30.33
2022-12-14T03:42:15.416Z,25.77
2022-12-14T03:44:49.635Z,29.13
2022-12-14T03:47:25.978Z,23.80
2022-12-14T03:50:12.118Z,28.58
2022-12-14T03:52:47.949Z,27.02
2022-12-14T03:55:37.135Z,27.63
2022-12-14T03:58:18.896Z,26.88
2022-12-14T04:03:27.504Z,27.17
2022-12-14T04:06:06.169Z,23.35
2022-12-14T04:08:45.352Z,25.77
2022-12-14T04:11:37.368Z,24.98
2022-12-14T04:14:41.008Z,25.33
2022-12-14T04:17:34.019Z,22.38
2022-12-14T04:20:09.910Z,25.45
2022-12-14T04:22:45.089Z,25.70
2022-12-14T04:25:39.673Z,27.63
2022-12-14T04:28:32.045Z,25.40
2022-12-14T04:31:07.523Z,26.00
2022-12-14T04:33:47.837Z,25.15
2022-12-14T04:36:23.812Z,21.35
2022-12-14T04:39:01.599Z,28.58
2022-12-14T04:41:36.855Z,29.48
2022-12-14T04:44:12.805Z,28.73
2022-12-14T04:46:46.927Z,26.65
2022-12-14T04:49:21.163Z,24.10
2022-12-14T04:51:54.060Z,20.17
2022-12-14T04:54:39.903Z,17.33
2022-12-14T04:57:27.795Z,17.90
2022-12-14T05:00:01.191Z,17.38
2022-12-14T05:02:43.230Z,17.67
2022-12-14T05:05:18.924Z,16.80
2022-12-14T05:08:05.559Z,14.68
2022-12-14T05:10:38.172Z,18.38
2022-12-14T05:13:19.164Z,16.63
2022-12-14T05:15:53.158Z,17.47
2022-12-14T05:18:26.289Z,16.50
2022-12-14T05:20:58.884Z,16.23
2022-12-14T05:23:32.250Z,15.60
2022-12-14T05:26:04.958Z,15.65
2022-12-14T05:28:38.013Z,15.63
2022-12-14T05:31:10.585Z,15.32
2022-12-14T05:33:43.536Z,16.67
2022-12-14T05:36:16.157Z,16.67
2022-12-14T05:38:49.024Z,17.27
2022-12-14T05:41:21.546Z,13.77
2022-12-14T05:43:54.442Z,16.15
2022-12-14T05:46:27.020Z,14.10
2022-12-14T05:49:00.028Z,15.88
2022-12-14T05:51:32.498Z,18.13
2022-12-14T05:54:05.786Z,18.35
2022-12-14T05:56:38.673Z,15.75
2022-12-14T05:59:15.851Z,15.00
2022-12-14T06:01:50.654Z,17.33
2022-12-14T06:04:23.819Z,19.77
2022-12-14T06:06:56.404Z,19.45
2022-12-14T06:09:29.323Z,23.67
2022-12-14T06:12:01.814Z,24.98
2022-12-14T06:14:34.772Z,27.98
2022-12-14T06:17:08.020Z,26.20
2022-12-14T06:19:40.947Z,29.77
2022-12-14T06:22:13.514Z,24.83
2022-12-14T06:24:46.516Z,24.95
2022-12-14T06:27:18.943Z,24.60
2022-12-14T06:29:51.856Z,26.35
2022-12-14T06:32:25.236Z,28.33
2022-12-14T06:34:58.107Z,27.17
2022-12-14T06:37:31.537Z,24.90
2022-12-14T06:40:04.737Z,24.33
2022-12-14T06:42:37.222Z,29.60
2022-12-14T06:45:10.376Z,31.35
2022-12-14T06:47:42.881Z,29.75
2022-12-14T06:50:15.994Z,25.25
2022-12-14T06:52:52.073Z,28.90
2022-12-14T06:55:25.537Z,30.70
2022-12-14T06:57:58.105Z,28.42
2022-12-14T07:00:31.174Z,28.27
2022-12-14T07:03:04.314Z,24.95
2022-12-14T07:05:37.514Z,25.77
2022-12-14T07:08:10.084Z,25.75
2022-12-14T07:10:42.962Z,27.70
2022-12-14T07:13:15.532Z,24.77
2022-12-14T07:15:55.840Z,25.38
2022-12-14T07:18:28.910Z,23.02
2022-12-14T07:21:05.481Z,23.30
2022-12-14T07:23:38.813Z,24.33
2022-12-14T07:26:13.184Z,25.02
2022-12-14T07:28:46.064Z,18.88
2022-12-14T07:31:23.515Z,22.30
2022-12-14T07:33:57.431Z,21.40
2022-12-14T07:36:30.980Z,19.58
2022-12-14T07:39:03.751Z,26.85
2022-12-14T07:41:36.679Z,19.95
2022-12-14T07:44:09.355Z,21.15
2022-12-14T07:46:42.672Z,22.48
2022-12-14T07:49:15.341Z,21.20
2022-12-14T07:51:48.617Z,20.52
2022-12-14T07:54:22.355Z,20.95
2022-12-14T07:56:55.547Z,22.73
2022-12-14T07:59:28.249Z,20.27
2022-12-14T08:02:01.266Z,18.35
2022-12-14T08:04:34.609Z,20.65
2022-12-14T08:07:07.544Z,18.65
2022-12-14T08:09:40.177Z,17.13
2022-12-14T08:12:13.056Z,23.00
2022-12-14T08:14:45.640Z,18.65
2022-12-14T08:17:21.952Z,18.90
2022-12-14T08:19:54.567Z,17.92
2022-12-14T08:22:27.529Z,17.33
2022-12-14T08:25:00.376Z,19.60
2022-12-14T08:27:33.381Z,18.08
2022-12-14T08:30:06.343Z,18.02
2022-12-14T08:32:39.176Z,20.00
2022-12-14T08:35:11.768Z,16.85
2022-12-14T08:37:47.639Z,18.92
2022-12-14T08:40:20.733Z,19.08
2022-12-14T08:42:53.867Z,17.88
2022-12-14T08:45:26.346Z,19.80
2022-12-14T08:47:59.927Z,17.23
2022-12-14T08:50:32.641Z,17.02
2022-12-14T08:53:05.431Z,17.75
2022-12-14T08:55:38.714Z,20.15
2022-12-14T08:58:12.221Z,17.60
2022-12-14T09:00:45.231Z,16.98
2022-12-14T09:03:18.392Z,18.92
2022-12-14T09:05:51.075Z,21.95
2022-12-14T09:08:23.972Z,21.50
2022-12-14T09:10:56.516Z,22.23
2022-12-14T09:13:29.815Z,21.95
2022-12-14T09:16:04.234Z,23.67
2022-12-14T09:18:38.247Z,24.83
2022-12-14T09:21:10.970Z,24.20
2022-12-14T09:23:44.449Z,21.25
2022-12-14T09:26:18.646Z,22.17
2022-12-14T09:28:53.712Z,20.00
2022-12-14T09:31:27.539Z,21.08
2022-12-14T09:34:00.601Z,24.10
2022-12-14T09:36:34.003Z,21.25
2022-12-14T09:39:07.622Z,22.02
2022-12-14T09:42:03.171Z,22.13
2022-12-14T09:44:46.024Z,20.13
2022-12-14T09:47:25.427Z,17.52
2022-12-14T09:49:58.519Z,24.70
2022-12-14T09:52:40.542Z,17.98
2022-12-14T09:55:19.187Z,19.35
2022-12-14T09:57:53.824Z,21.52
2022-12-14T10:00:31.240Z,20.42
2022-12-14T10:03:10.438Z,20.50
2022-12-14T10:06:02.045Z,20.60
2022-12-14T10:08:47.022Z,18.33
2022-12-14T10:11:38.000Z,20.92
2022-12-14T10:14:16.704Z,21.13
2022-12-14T10:17:17.125Z,20.08
2022-12-14T10:19:57.025Z,18.83
2022-12-14T10:22:31.861Z,21.50
2022-12-14T10:25:07.335Z,19.30
2022-12-14T10:28:09.350Z,21.15
2022-12-14T10:30:34.148Z,19.45
2022-12-14T10:33:27.226Z,17.17
2022-12-14T10:36:08.489Z,17.05
2022-12-14T10:38:46.456Z,19.38
2022-12-14T10:41:37.139Z,20.00
2022-12-14T10:44:20.389Z,21.40
2022-12-14T10:47:08.706Z,16.30
2022-12-14T10:49:45.150Z,21.40
2022-12-14T10:52:23.176Z,16.80
2022-12-14T10:54:57.580Z,21.35
2022-12-14T10:57:30.133Z,17.77
2022-12-14T11:00:09.720Z,21.40
2022-12-14T11:02:44.869Z,20.25
2022-12-14T11:05:40.757Z,16.90
2022-12-14T11:08:34.417Z,19.92
2022-12-14T11:11:10.712Z,21.38
2022-12-14T11:13:50.967Z,19.42
2022-12-14T11:16:30.215Z,21.20
2022-12-14T11:19:15.138Z,19.45
2022-12-14T11:21:50.047Z,15.20
2022-12-14T11:24:27.441Z,19.80
2022-12-14T11:27:01.890Z,19.85
2022-12-14T11:29:39.660Z,18.98
2022-12-14T11:32:18.156Z,16.83
2022-12-14T11:34:58.091Z,20.75
2022-12-14T11:37:31.952Z,18.35
2022-12-14T11:40:05.866Z,20.23
2022-12-14T11:42:38.822Z,21.48
2022-12-14T11:45:40.639Z,19.75
2022-12-14T11:48:13.662Z,18.33
2022-12-14T11:50:47.480Z,17.02
2022-12-14T11:53:21.996Z,18.08
2022-12-14T11:55:59.107Z,18.45
2022-12-14T11:58:33.741Z,19.85
2022-12-14T12:01:16.670Z,17.65
2022-12-14T12:03:51.726Z,19.17
2022-12-14T12:06:29.385Z,20.08
2022-12-14T12:09:03.758Z,20.67
2022-12-14T12:11:36.287Z,20.38
2022-12-14T12:14:26.108Z,19.08
2022-12-14T12:16:58.844Z,21.90
2022-12-14T12:19:34.245Z,21.70
2022-12-14T12:22:09.634Z,21.48
2022-12-14T12:28:00.549Z,18.73
2022-12-14T12:30:34.911Z,18.50
2022-12-14T12:33:22.487Z,23.55
2022-12-14T12:35:56.489Z,22.02
2022-12-14T12:38:44.142Z,20.75
2022-12-14T12:42:05.226Z,20.95
2022-12-14T12:44:41.112Z,19.35
2022-12-14T12:47:29.879Z,17.02
2022-12-14T12:50:10.154Z,15.88
2022-12-14T12:52:50.516Z,21.30
2022-12-14T12:55:24.142Z,20.00
2022-12-14T12:57:58.664Z,21.58
2022-12-14T13:00:31.734Z,19.48
2022-12-14T13:03:16.332Z,18.75
2022-12-14T13:05:49.910Z,20.27
2022-12-14T13:08:25.784Z,20.17
2022-12-14T13:11:25.241Z,19.38
2022-12-14T13:14:04.177Z,20.25
2022-12-14T13:16:39.036Z,22.63
2022-12-14T13:22:14.859Z,20.85
2022-12-14T13:24:51.819Z,21.80
2022-12-14T13:27:40.992Z,20.77
2022-12-14T13:30:43.521Z,20.55
2022-12-14T13:33:46.208Z,21.17
2022-12-14T13:36:35.428Z,21.20
2022-12-14T13:39:08.084Z,19.77
2022-12-14T13:41:40.988Z,19.70
2022-12-14T13:44:37.437Z,20.77
2022-12-14T13:47:17.832Z,22.75
2022-12-14T13:50:26.641Z,18.13
2022-12-14T13:52:49.184Z,19.60
2022-12-14T13:55:30.929Z,19.55
2022-12-14T13:58:19.196Z,18.40
2022-12-14T14:00:53.517Z,18.85
2022-12-14T14:03:35.814Z,20.30
2022-12-14T14:06:34.808Z,21.08
2022-12-14T14:09:27.067Z,18.90
2022-12-14T14:12:03.877Z,18.80
2022-12-14T14:14:40.370Z,17.55
2022-12-14T14:17:13.094Z,17.73
2022-12-14T14:19:49.746Z,20.17
2022-12-14T14:22:27.632Z,17.08
2022-12-14T14:25:01.941Z,19.27
2022-12-14T14:27:37.477Z,21.88
2022-12-14T14:30:29.290Z,20.67
2022-12-14T14:33:43.027Z,17.25
2022-12-14T14:36:07.930Z,20.35
2022-12-14T14:38:41.102Z,18.25
2022-12-14T14:41:20.920Z,16.05
2022-12-14T14:43:58.583Z,17.77
2022-12-14T14:46:43.068Z,19.05
2022-12-14T14:49:23.066Z,21.23
2022-12-14T14:51:56.105Z,14.88
2022-12-14T14:57:40.470Z,22.08
2022-12-14T15:00:13.356Z,20.35
2022-12-14T15:02:46.591Z,22.73
2022-12-14T15:08:20.875Z,16.42
2022-12-14T15:10:53.833Z,20.60
2022-12-14T15:13:30.267Z,15.40
2022-12-14T15:16:03.066Z,19.52
2022-12-14T15:18:35.947Z,16.05
2022-12-14T15:21:11.980Z,21.92
2022-12-14T15:23:49.463Z,22.20
2022-12-14T15:26:27.665Z,18.23
2022-12-14T15:29:01.250Z,21.17
2022-12-14T15:31:35.731Z,21.70
2022-12-14T15:34:14.092Z,20.95
2022-12-14T15:36:47.186Z,22.45
2022-12-14T15:39:41.047Z,22.23
2022-12-14T15:42:15.522Z,20.63
2022-12-14T15:44:52.691Z,20.52
2022-12-14T15:47:26.732Z,17.80
2022-12-14T15:50:21.510Z,18.73
2022-12-14T15:52:55.965Z,18.02
2022-12-14T15:55:28.886Z,17.67
2022-12-14T15:58:16.142Z,19.05
2022-12-14T16:00:50.509Z,20.17
2022-12-14T16:03:33.007Z,17.23
2022-12-14T16:06:06.375Z,16.10
2022-12-14T16:08:42.563Z,15.93
2022-12-14T16:11:24.923Z,17.42
2022-12-14T16:13:59.461Z,17.73
2022-12-14T16:16:32.483Z,24.38
2022-12-14T16:19:25.878Z,22.65
2022-12-14T16:22:18.334Z,16.92
2022-12-14T16:24:58.299Z,25.02
2022-12-14T16:27:31.564Z,27.10
2022-12-14T16:30:24.488Z,22.23
2022-12-14T16:33:14.148Z,15.02
2022-12-14T16:35:47.639Z,18.92
2022-12-14T16:38:20.524Z,25.08
2022-12-14T16:40:58.203Z,22.15
2022-12-14T16:43:31.538Z,19.45
2022-12-14T16:46:04.497Z,16.50
2022-12-14T16:48:39.012Z,19.75
2022-12-14T16:51:37.852Z,15.43
2022-12-14T16:54:24.990Z,15.45
2022-12-14T16:56:58.969Z,12.13
2022-12-14T16:59:35.996Z,16.65
2022-12-14T17:02:25.475Z,18.50
2022-12-14T17:05:31.305Z,15.55
2022-12-14T17:08:04.804Z,13.40
2022-12-14T17:10:39.164Z,12.65
2022-12-14T17:13:11.659Z,15.55
2022-12-14T17:16:10.906Z,13.40
2022-12-14T17:18:43.481Z,16.48
2022-12-14T17:21:23.984Z,14.98
2022-12-14T17:23:57.634Z,13.32
2022-12-14T17:26:31.606Z,16.45
2022-12-14T17:29:04.239Z,14.13
2022-12-14T17:31:37.175Z,15.68
2022-12-14T17:34:10.081Z,16.50
2022-12-14T17:36:43.230Z,17.05
2022-12-14T17:39:15.908Z,17.15
2022-12-14T17:41:48.911Z,14.82
2022-12-14T17:44:21.927Z,17.95
2022-12-14T17:46:55.735Z,19.08
2022-12-14T17:49:34.445Z,23.50
2022-12-14T17:52:08.223Z,16.88
2022-12-14T17:54:40.754Z,18.88
2022-12-14T17:57:17.828Z,19.67
2022-12-14T18:00:10.950Z,17.63
2022-12-14T18:02:46.285Z,12.15
2022-12-14T18:05:22.402Z,22.27
2022-12-14T18:07:55.526Z,17.75
2022-12-14T18:10:28.546Z,15.73
2022-12-14T18:13:02.700Z,13.80
2022-12-14T18:15:37.833Z,11.10
2022-12-14T18:18:11.357Z,17.38
2022-12-14T18:20:45.474Z,20.92
2022-12-14T18:23:22.641Z,12.13
2022-12-14T18:25:56.808Z,18.70
2022-12-14T18:28:29.731Z,19.65
2022-12-14T18:31:03.890Z,20.48
2022-12-14T18:33:36.820Z,21.33
2022-12-14T18:36:11.799Z,13.15
2022-12-14T18:38:44.889Z,17.88
2022-12-14T18:41:23.570Z,14.65
2022-12-14T18:43:56.855Z,14.20
2022-12-14T18:46:29.478Z,15.07
2022-12-14T18:49:02.530Z,16.33
2022-12-14T18:51:35.451Z,12.57
2022-12-14T18:54:09.720Z,16.75
2022-12-14T18:56:42.509Z,14.07
2022-12-14T18:59:15.576Z,13.77
2022-12-14T19:01:48.315Z,16.13
2022-12-14T19:04:22.674Z,12.10
2022-12-14T19:06:55.153Z,14.38
2022-12-14T19:09:28.096Z,10.68
2022-12-14T19:12:00.574Z,14.38
2022-12-14T19:14:33.564Z,13.02
2022-12-14T19:17:06.152Z,14.60
2022-12-14T19:19:44.229Z,9.40
2022-12-14T19:22:17.729Z,14.55
2022-12-14T19:24:52.672Z,14.45
2022-12-14T19:28:00.908Z,15.18
2022-12-14T19:30:23.223Z,13.80
2022-12-14T19:32:56.795Z,14.90
2022-12-14T19:35:29.886Z,11.05
2022-12-14T19:38:02.451Z,15.20
2022-12-14T19:40:35.418Z,11.68
2022-12-14T19:43:08.024Z,15.10
2022-12-14T19:45:41.013Z,13.93
2022-12-14T19:48:13.719Z,16.27
2022-12-14T19:50:49.198Z,17.70
2022-12-14T19:53:24.006Z,14.95
2022-12-14T19:55:57.060Z,18.40
2022-12-14T19:58:30.073Z,15.65
2022-12-14T20:01:07.736Z,11.43
2022-12-14T20:03:40.779Z,15.38
2022-12-14T20:06:13.950Z,17.77
2022-12-14T20:08:49.345Z,18.38
2022-12-14T20:11:22.710Z,18.95
2022-12-14T20:13:58.995Z,17.67
2022-12-14T20:16:35.581Z,16.33
2022-12-14T20:19:08.534Z,19.67
2022-12-14T20:21:41.579Z,16.77
2022-12-14T20:24:14.311Z,17.10
2022-12-14T20:26:47.203Z,13.32
2022-12-14T20:29:21.965Z,20.25
2022-12-14T20:31:57.577Z,17.27
2022-12-14T20:34:31.037Z,19.13
2022-12-14T20:37:04.407Z,16.17
2022-12-14T20:39:36.942Z,20.35
2022-12-14T20:42:09.853Z,17.48
2022-12-14T20:44:42.489Z,18.98
2022-12-14T20:47:15.332Z,13.48
2022-12-14T20:49:48.059Z,16.85
2022-12-14T20:52:20.937Z,16.30
2022-12-14T20:54:53.961Z,14.20
2022-12-14T20:57:27.004Z,14.10
2022-12-14T20:59:59.763Z,16.15
2022-12-14T21:02:32.774Z,12.80
2022-12-14T21:05:05.763Z,17.88
2022-12-14T21:07:39.564Z,17.48
2022-12-14T21:10:12.130Z,22.92
2022-12-14T21:12:47.788Z,17.15
2022-12-14T21:15:20.313Z,14.00
2022-12-14T21:17:53.166Z,15.32
2022-12-14T21:20:25.946Z,14.45
2022-12-14T21:22:58.926Z,14.02
2022-12-14T21:25:35.706Z,13.77
2022-12-14T21:28:08.589Z,14.40
2022-12-14T21:30:41.209Z,16.33
2022-12-14T21:33:14.201Z,13.55
2022-12-14T21:35:46.790Z,14.93
2022-12-14T21:38:19.711Z,20.40
2022-12-14T21:41:11.644Z,17.42
2022-12-14T21:43:45.027Z,16.23
2022-12-14T21:46:17.773Z,15.70
2022-12-14T21:48:50.710Z,14.70
2022-12-14T21:51:23.292Z,14.43
2022-12-14T21:53:59.035Z,15.45
2022-12-14T21:56:56.347Z,15.88
2022-12-14T21:59:30.620Z,17.98
2022-12-14T22:02:05.462Z,17.92
2022-12-14T22:04:40.128Z,13.70
2022-12-14T22:07:16.466Z,15.82
2022-12-14T22:09:50.129Z,14.13
2022-12-14T22:12:23.311Z,14.43
2022-12-14T22:14:56.265Z,14.30
2022-12-14T22:17:28.750Z,15.45
2022-12-14T22:20:01.724Z,15.27
2022-12-14T22:22:34.319Z,14.40
2022-12-14T22:25:07.498Z,15.00
2022-12-14T22:27:40.035Z,14.05
2022-12-14T22:30:13.363Z,13.20
2022-12-14T22:32:45.918Z,15.48
2022-12-14T22:35:18.779Z,14.32
2022-12-14T22:37:51.393Z,15.30
2022-12-14T22:40:24.339Z,15.00
2022-12-14T22:42:56.824Z,14.07
2022-12-14T22:45:29.766Z,15.73
2022-12-14T22:48:02.407Z,13.05
2022-12-14T22:50:35.495Z,12.93
2022-12-14T22:53:08.050Z,17.05
2022-12-14T22:55:41.366Z,16.00
2022-12-14T22:58:15.000Z,18.65
2022-12-14T23:00:48.724Z,21.70
2022-12-14T23:03:25.476Z,22.17
2022-12-14T23:06:01.944Z,20.38
2022-12-14T23:08:34.978Z,23.17
2022-12-14T23:11:26.805Z,22.38
2022-12-14T23:14:18.269Z,31.15
2022-12-14T23:17:09.516Z,37.92
2022-12-14T23:20:04.660Z,53.65
2022-12-14T23:22:56.554Z,36.03
2022-12-14T23:25:47.668Z,23.90
2022-12-14T23:28:38.863Z,19.70
2022-12-14T23:31:30.041Z,21.35
2022-12-14T23:34:21.363Z,20.08
2022-12-14T23:37:17.964Z,17.13
2022-12-14T23:40:11.313Z,15.90
2022-12-14T23:43:02.487Z,15.40
2022-12-14T23:45:53.712Z,17.70
2022-12-14T23:48:44.810Z,21.53
2022-12-14T23:51:36.151Z,18.55
2022-12-14T23:54:26.984Z,18.93
2022-12-14T23:57:18.160Z,17.63
